sensor_id;sensor_type;location;lat;lon;timestamp;temperature;humidity
21318;DHT22;10818;50.830;6.524;2022-07-21T16:53:17;20.50;99.90
21318;DHT22;10818;50.830;6.524;2022-07-21T16:58:18;20.40;99.90
21318;DHT22;10818;50.830;6.524;2022-07-21T17:03:18;20.70;99.90
21318;DHT22;10818;50.830;6.524;2022-07-21T17:08:18;20.90;99.90
21318;DHT22;10818;50.830;6.524;2022-07-21T17:13:19;21.00;99.90
21318;DHT22;10818;50.830;6.524;2022-07-21T17:18:19;21.10;99.90
21318;DHT22;10818;50.830;6.524;2022-07-21T17:23:20;21.10;99.90
21318;DHT22;10818;50.830;6.524;2022-07-21T17:28:21;21.10;99.90
21318;DHT22;10818;50.830;6.524;2022-07-21T17:33:21;21.00;99.90
21318;DHT22;10818;50.830;6.524;2022-07-21T17:38:21;21.00;99.90
21318;DHT22;10818;50.830;6.524;2022-07-21T17:43:22;21.00;99.90
21318;DHT22;10818;50.830;6.524;2022-07-21T17:48:22;20.90;99.90
21318;DHT22;10818;50.830;6.524;2022-07-21T17:53:23;20.80;99.90
21318;DHT22;10818;50.830;6.524;2022-07-21T17:58:23;20.70;99.90
21318;DHT22;10818;50.830;6.524;2022-07-21T18:03:42;20.80;99.90
21318;DHT22;10818;50.830;6.524;2022-07-21T18:08:43;20.70;99.90
21318;DHT22;10818;50.830;6.524;2022-07-21T18:13:44;20.80;99.90
21318;DHT22;10818;50.830;6.524;2022-07-21T18:18:45;20.70;99.90
21318;DHT22;10818;50.830;6.524;2022-07-21T18:23:45;20.70;99.90
21318;DHT22;10818;50.830;6.524;2022-07-21T18:28:45;20.70;99.90
21318;DHT22;10818;50.830;6.524;2022-07-21T18:33:46;20.60;99.90
21318;DHT22;10818;50.830;6.524;2022-07-21T18:38:46;20.60;99.90
21318;DHT22;10818;50.830;6.524;2022-07-21T18:43:47;20.50;99.90
21318;DHT22;10818;50.830;6.524;2022-07-21T18:48:47;20.50;99.90
21318;DHT22;10818;50.830;6.524;2022-07-21T18:53:48;20.40;99.90
21318;DHT22;10818;50.830;6.524;2022-07-21T18:58:48;20.50;99.90
21318;DHT22;10818;50.830;6.524;2022-07-21T19:03:49;20.50;99.90
21318;DHT22;10818;50.830;6.524;2022-07-21T19:08:49;20.50;99.90
21318;DHT22;10818;50.830;6.524;2022-07-21T19:13:50;20.50;99.90
21318;DHT22;10818;50.830;6.524;2022-07-21T19:18:53;20.50;99.90
21318;DHT22;10818;50.830;6.524;2022-07-21T19:23:54;20.40;99.90
21318;DHT22;10818;50.830;6.524;2022-07-21T19:28:54;20.40;99.90
21318;DHT22;10818;50.830;6.524;2022-07-21T19:33:55;20.40;99.90
21318;DHT22;10818;50.830;6.524;2022-07-21T19:38:55;20.40;99.90
21318;DHT22;10818;50.830;6.524;2022-07-21T19:43:56;20.40;99.90
21318;DHT22;10818;50.830;6.524;2022-07-21T19:48:56;20.30;99.90
21318;DHT22;10818;50.830;6.524;2022-07-21T19:53:57;20.30;99.90
21318;DHT22;10818;50.830;6.524;2022-07-21T19:58:57;20.30;99.90
21318;DHT22;10818;50.830;6.524;2022-07-21T20:03:59;20.30;99.90
21318;DHT22;10818;50.830;6.524;2022-07-21T20:09:00;20.20;99.90
21318;DHT22;10818;50.830;6.524;2022-07-21T20:14:00;20.20;99.90
21318;DHT22;10818;50.830;6.524;2022-07-21T20:19:01;20.20;99.90
21318;DHT22;10818;50.830;6.524;2022-07-21T20:24:01;20.10;99.90
21318;DHT22;10818;50.830;6.524;2022-07-21T20:29:02;20.10;99.90
21318;DHT22;10818;50.830;6.524;2022-07-21T20:34:02;20.10;99.90
21318;DHT22;10818;50.830;6.524;2022-07-21T20:39:05;20.00;99.90
21318;DHT22;10818;50.830;6.524;2022-07-21T20:44:05;20.10;99.90
21318;DHT22;10818;50.830;6.524;2022-07-21T20:49:06;20.00;99.90
21318;DHT22;10818;50.830;6.524;2022-07-21T20:54:07;20.00;99.90
21318;DHT22;10818;50.830;6.524;2022-07-21T20:59:07;20.00;99.90
21318;DHT22;10818;50.830;6.524;2022-07-21T21:04:08;19.90;99.90
21318;DHT22;10818;50.830;6.524;2022-07-21T21:09:12;20.00;99.90
21318;DHT22;10818;50.830;6.524;2022-07-21T21:14:12;20.00;99.90
21318;DHT22;10818;50.830;6.524;2022-07-21T21:19:13;19.90;99.90
21318;DHT22;10818;50.830;6.524;2022-07-21T21:24:13;19.80;99.90
21318;DHT22;10818;50.830;6.524;2022-07-21T21:29:14;19.80;99.90
21318;DHT22;10818;50.830;6.524;2022-07-21T21:34:15;19.80;99.90
21318;DHT22;10818;50.830;6.524;2022-07-21T21:39:15;19.60;99.90
21318;DHT22;10818;50.830;6.524;2022-07-21T21:44:16;19.60;99.90
21318;DHT22;10818;50.830;6.524;2022-07-21T21:49:17;19.60;99.90
21318;DHT22;10818;50.830;6.524;2022-07-21T21:54:17;19.60;99.90
21318;DHT22;10818;50.830;6.524;2022-07-21T21:59:19;19.60;99.90
21318;DHT22;10818;50.830;6.524;2022-07-21T22:04:19;19.60;99.90
21318;DHT22;10818;50.830;6.524;2022-07-21T22:09:20;19.60;99.90
21318;DHT22;10818;50.830;6.524;2022-07-21T22:14:21;19.60;99.90
21318;DHT22;10818;50.830;6.524;2022-07-21T22:19:22;19.60;99.90
21318;DHT22;10818;50.830;6.524;2022-07-21T22:24:22;19.50;99.90
21318;DHT22;10818;50.830;6.524;2022-07-21T22:29:23;19.60;99.90
21318;DHT22;10818;50.830;6.524;2022-07-21T22:34:23;19.50;99.90
21318;DHT22;10818;50.830;6.524;2022-07-21T22:39:23;19.50;99.90
21318;DHT22;10818;50.830;6.524;2022-07-21T22:44:24;19.40;99.90
21318;DHT22;10818;50.830;6.524;2022-07-21T22:49:25;19.30;99.90
21318;DHT22;10818;50.830;6.524;2022-07-21T22:54:26;19.40;99.90
21318;DHT22;10818;50.830;6.524;2022-07-21T22:59:27;19.40;99.90
21318;DHT22;10818;50.830;6.524;2022-07-21T23:04:27;19.30;99.90
21318;DHT22;10818;50.830;6.524;2022-07-21T23:09:28;19.30;99.90
21318;DHT22;10818;50.830;6.524;2022-07-21T23:14:28;19.30;99.90
21318;DHT22;10818;50.830;6.524;2022-07-21T23:19:28;19.30;99.90
21318;DHT22;10818;50.830;6.524;2022-07-21T23:24:29;19.30;99.90
21318;DHT22;10818;50.830;6.524;2022-07-21T23:29:29;19.30;99.90
21318;DHT22;10818;50.830;6.524;2022-07-21T23:34:30;19.30;99.90
21318;DHT22;10818;50.830;6.524;2022-07-21T23:39:30;19.20;99.90
21318;DHT22;10818;50.830;6.524;2022-07-21T23:44:31;19.20;99.90
21318;DHT22;10818;50.830;6.524;2022-07-21T23:49:31;19.20;99.90
21318;DHT22;10818;50.830;6.524;2022-07-21T23:54:32;19.20;99.90
21318;DHT22;10818;50.830;6.524;2022-07-21T23:59:32;19.20;99.90
